createdAt,value
2023-03-16T00:00:01.512Z,4.90
2023-03-16T00:02:31.046Z,4.80
2023-03-16T00:04:57.986Z,4.80
2023-03-16T00:07:25.233Z,4.60
2023-03-16T00:09:52.206Z,4.60
2023-03-16T00:12:19.746Z,4.70
2023-03-16T00:14:49.015Z,4.70
2023-03-16T00:17:21.275Z,4.50
2023-03-16T00:19:55.225Z,4.50
2023-03-16T00:22:25.659Z,4.60
2023-03-16T00:24:53.717Z,4.70
2023-03-16T00:27:22.984Z,4.70
2023-03-16T00:29:55.905Z,4.70
2023-03-16T00:32:29.950Z,4.70
2023-03-16T00:34:57.497Z,4.70
2023-03-16T00:37:25.908Z,4.70
2023-03-16T00:39:56.362Z,4.60
2023-03-16T00:42:29.436Z,4.70
2023-03-16T00:44:57.830Z,4.60
2023-03-16T00:47:26.900Z,4.60
2023-03-16T00:49:54.137Z,4.40
2023-03-16T00:52:22.287Z,4.50
2023-03-16T00:54:49.963Z,4.40
2023-03-16T00:57:19.020Z,4.30
2023-03-16T00:59:47.395Z,4.30
2023-03-16T01:02:15.696Z,4.40
2023-03-16T01:04:43.039Z,4.30
2023-03-16T01:07:12.788Z,4.20
2023-03-16T01:09:40.873Z,4.10
2023-03-16T01:12:13.414Z,4.10
2023-03-16T01:14:41.837Z,4.20
2023-03-16T01:17:09.703Z,4.30
2023-03-16T01:19:38.015Z,4.30
2023-03-16T01:22:09.907Z,4.30
2023-03-16T01:24:39.615Z,4.20
2023-03-16T01:27:07.866Z,4.30
2023-03-16T01:29:35.995Z,4.20
2023-03-16T01:32:04.808Z,4.20
2023-03-16T01:34:32.796Z,4.10
2023-03-16T01:37:00.937Z,4.10
2023-03-16T01:39:36.185Z,4.10
2023-03-16T01:42:03.738Z,4.10
2023-03-16T01:44:55.493Z,4.00
2023-03-16T01:47:26.503Z,4.00
2023-03-16T01:49:56.200Z,3.90
2023-03-16T01:52:33.353Z,3.90
2023-03-16T01:55:08.748Z,3.90
2023-03-16T01:57:42.696Z,3.90
2023-03-16T02:00:23.730Z,3.80
2023-03-16T02:03:20.093Z,3.70
2023-03-16T02:05:57.906Z,3.80
2023-03-16T02:08:27.254Z,3.90
2023-03-16T02:10:56.653Z,3.80
2023-03-16T02:13:33.976Z,3.60
2023-03-16T02:16:01.286Z,3.70
2023-03-16T02:18:28.851Z,3.70
2023-03-16T02:21:02.710Z,3.60
2023-03-16T02:23:32.641Z,3.60
2023-03-16T02:26:07.797Z,3.60
2023-03-16T02:29:03.834Z,3.70
2023-03-16T02:31:32.384Z,3.70
2023-03-16T02:34:00.397Z,3.50
2023-03-16T02:36:29.723Z,3.60
2023-03-16T02:38:56.677Z,3.40
2023-03-16T02:41:27.637Z,3.50
2023-03-16T02:44:04.982Z,3.40
2023-03-16T02:46:37.440Z,3.50
2023-03-16T02:49:05.805Z,3.50
2023-03-16T02:51:33.056Z,3.40
2023-03-16T02:54:00.085Z,3.30
2023-03-16T02:56:29.408Z,3.40
2023-03-16T02:58:57.952Z,3.30
2023-03-16T03:01:26.072Z,3.40
2023-03-16T03:03:53.236Z,3.40
2023-03-16T03:06:20.314Z,3.40
2023-03-16T03:08:47.390Z,3.40
2023-03-16T03:11:14.502Z,3.30
2023-03-16T03:13:44.619Z,3.20
2023-03-16T03:16:17.471Z,3.30
2023-03-16T03:18:44.745Z,3.10
2023-03-16T03:21:11.753Z,3.20
2023-03-16T03:23:40.750Z,3.00
2023-03-16T03:26:08.228Z,3.10
2023-03-16T03:28:35.349Z,3.20
2023-03-16T03:31:02.362Z,3.20
2023-03-16T03:33:29.880Z,3.30
2023-03-16T03:35:58.696Z,3.20
2023-03-16T03:38:29.583Z,3.10
2023-03-16T03:40:59.639Z,3.10
2023-03-16T03:43:30.215Z,3.20
2023-03-16T03:46:00.831Z,3.00
2023-03-16T03:48:28.605Z,3.20
2023-03-16T03:50:57.189Z,3.10
2023-03-16T03:53:42.880Z,3.00
2023-03-16T03:56:19.324Z,2.80
2023-03-16T03:58:47.086Z,2.90
2023-03-16T04:01:20.428Z,2.90
2023-03-16T04:03:47.560Z,2.90
2023-03-16T04:06:16.178Z,2.80
2023-03-16T04:08:43.351Z,3.00
2023-03-16T04:11:14.604Z,2.90
2023-03-16T04:13:41.659Z,2.80
2023-03-16T04:16:09.896Z,2.80
2023-03-16T04:18:42.895Z,2.90
2023-03-16T04:21:16.017Z,2.80
2023-03-16T04:23:44.461Z,2.80
2023-03-16T04:26:11.821Z,2.70
2023-03-16T04:28:40.884Z,2.80
2023-03-16T04:31:11.085Z,2.70
2023-03-16T04:33:42.481Z,2.70
2023-03-16T04:36:10.132Z,2.60
2023-03-16T04:38:38.249Z,2.60
2023-03-16T04:41:06.530Z,2.70
2023-03-16T04:43:37.801Z,2.50
2023-03-16T04:46:12.048Z,2.50
2023-03-16T04:48:39.344Z,2.50
2023-03-16T04:51:06.815Z,2.40
2023-03-16T04:53:38.036Z,2.50
2023-03-16T04:56:19.491Z,2.60
2023-03-16T04:58:52.099Z,2.50
2023-03-16T05:01:21.233Z,2.50
2023-03-16T05:03:53.008Z,2.40
2023-03-16T05:06:21.013Z,2.60
2023-03-16T05:08:49.065Z,2.50
2023-03-16T05:11:16.084Z,2.40
2023-03-16T05:13:53.001Z,2.30
2023-03-16T05:16:20.474Z,2.20
2023-03-16T05:18:47.595Z,2.20
2023-03-16T05:21:14.886Z,2.30
2023-03-16T05:23:54.474Z,2.30
2023-03-16T05:26:21.809Z,2.20
2023-03-16T05:28:48.969Z,2.20
2023-03-16T05:31:18.891Z,2.00
2023-03-16T05:33:51.893Z,2.20
2023-03-16T05:36:20.926Z,2.20
2023-03-16T05:38:52.740Z,2.30
2023-03-16T05:41:30.239Z,2.20
2023-03-16T05:44:29.509Z,2.40
2023-03-16T05:47:20.960Z,2.60
2023-03-16T05:49:53.408Z,2.40
2023-03-16T05:52:26.114Z,2.70
2023-03-16T05:54:55.059Z,2.90
2023-03-16T05:57:22.159Z,3.10
2023-03-16T05:59:51.462Z,3.00
2023-03-16T06:02:18.745Z,3.20
2023-03-16T06:04:46.057Z,3.30
2023-03-16T06:07:13.010Z,3.10
2023-03-16T06:09:40.595Z,3.30
2023-03-16T06:12:13.663Z,3.30
2023-03-16T06:14:41.346Z,3.50
2023-03-16T06:17:08.430Z,3.50
2023-03-16T06:19:36.185Z,3.70
2023-03-16T06:22:03.560Z,3.80
2023-03-16T06:24:31.225Z,3.80
2023-03-16T06:26:58.310Z,3.90
2023-03-16T06:29:31.623Z,4.00
2023-03-16T06:31:58.837Z,4.20
2023-03-16T06:34:27.060Z,4.20
2023-03-16T06:36:55.262Z,4.30
2023-03-16T06:39:23.379Z,4.20
2023-03-16T06:41:51.283Z,4.30
2023-03-16T06:44:20.013Z,4.40
2023-03-16T06:47:13.811Z,4.50
2023-03-16T06:49:41.172Z,4.70
2023-03-16T06:52:15.520Z,4.70
2023-03-16T06:54:43.277Z,4.60
2023-03-16T06:57:10.715Z,4.80
2023-03-16T06:59:37.693Z,4.90
2023-03-16T07:02:04.681Z,5.00
2023-03-16T07:04:34.143Z,4.90
2023-03-16T07:07:01.506Z,4.90
2023-03-16T07:09:29.314Z,4.90
2023-03-16T07:11:56.613Z,5.00
2023-03-16T07:14:24.860Z,5.20
2023-03-16T07:16:53.707Z,5.30
2023-03-16T07:19:23.869Z,5.20
2023-03-16T07:21:51.870Z,5.60
2023-03-16T07:24:22.571Z,5.40
2023-03-16T07:26:50.126Z,5.50
2023-03-16T07:29:25.720Z,5.60
2023-03-16T07:31:54.108Z,5.80
2023-03-16T07:34:25.361Z,6.20
2023-03-16T07:36:56.602Z,5.90
2023-03-16T07:39:26.269Z,6.10
2023-03-16T07:41:59.375Z,6.40
2023-03-16T07:44:38.211Z,6.10
2023-03-16T07:47:07.182Z,6.30
2023-03-16T07:49:35.530Z,6.50
2023-03-16T07:52:02.676Z,6.60
2023-03-16T07:54:40.136Z,6.90
2023-03-16T07:57:10.178Z,7.10
2023-03-16T07:59:41.716Z,7.30
2023-03-16T08:02:17.398Z,7.10
2023-03-16T08:04:45.363Z,7.20
2023-03-16T08:07:15.554Z,7.20
2023-03-16T08:09:57.657Z,7.30
2023-03-16T08:12:31.892Z,7.40
2023-03-16T08:14:59.863Z,8.00
2023-03-16T08:17:32.233Z,8.10
2023-03-16T08:20:01.118Z,8.30
2023-03-16T08:22:32.727Z,8.40
2023-03-16T08:25:00.771Z,7.90
2023-03-16T08:27:29.597Z,8.00
2023-03-16T08:30:05.156Z,8.20
2023-03-16T08:32:43.117Z,8.50
2023-03-16T08:35:14.079Z,8.60
2023-03-16T08:37:42.681Z,8.50
2023-03-16T08:40:13.878Z,8.40
2023-03-16T08:42:41.593Z,8.50
2023-03-16T08:45:13.806Z,9.00
2023-03-16T08:47:43.549Z,8.70
2023-03-16T08:50:13.645Z,8.40
2023-03-16T08:52:40.936Z,8.80
2023-03-16T08:55:10.960Z,8.60
2023-03-16T08:57:39.395Z,8.50
2023-03-16T09:00:14.520Z,8.90
2023-03-16T09:02:43.818Z,9.40
2023-03-16T09:05:20.383Z,9.40
2023-03-16T09:07:48.968Z,9.30
2023-03-16T09:10:19.865Z,10.10
2023-03-16T09:12:47.298Z,9.60
2023-03-16T09:15:14.434Z,9.20
2023-03-16T09:17:42.202Z,9.20
2023-03-16T09:20:30.049Z,9.50
2023-03-16T09:23:00.650Z,10.10
2023-03-16T09:25:28.148Z,10.30
2023-03-16T09:27:58.065Z,9.30
2023-03-16T09:30:25.170Z,9.30
2023-03-16T09:32:52.348Z,9.30
2023-03-16T09:35:19.637Z,9.30
2023-03-16T09:38:04.783Z,9.90
2023-03-16T09:40:36.123Z,10.10
2023-03-16T09:43:25.686Z,10.50
2023-03-16T09:45:55.462Z,9.60
2023-03-16T09:48:25.198Z,9.60
2023-03-16T09:50:54.574Z,10.00
2023-03-16T09:53:32.554Z,9.10
2023-03-16T09:56:04.389Z,9.40
2023-03-16T09:58:34.335Z,9.30
2023-03-16T10:01:35.758Z,10.00
2023-03-16T10:04:15.770Z,9.50
2023-03-16T10:07:02.609Z,10.10
2023-03-16T10:09:54.494Z,9.80
2023-03-16T10:12:24.293Z,9.70
2023-03-16T10:15:10.023Z,10.70
2023-03-16T10:17:58.803Z,10.50
2023-03-16T10:20:28.488Z,9.80
2023-03-16T10:22:55.887Z,10.40
2023-03-16T10:25:31.233Z,10.10
2023-03-16T10:27:58.242Z,9.90
2023-03-16T10:30:32.515Z,9.30
2023-03-16T10:33:10.485Z,10.40
2023-03-16T10:35:48.390Z,10.60
2023-03-16T10:38:40.980Z,10.40
2023-03-16T10:41:20.604Z,10.90
2023-03-16T10:43:50.985Z,11.20
2023-03-16T10:46:23.587Z,11.30
2023-03-16T10:49:00.058Z,10.90
2023-03-16T10:51:33.180Z,11.60
2023-03-16T10:54:14.318Z,11.90
2023-03-16T10:56:41.375Z,12.20
2023-03-16T10:59:38.254Z,11.70
2023-03-16T11:02:33.365Z,11.90
2023-03-16T11:05:12.998Z,12.70
2023-03-16T11:07:47.939Z,12.70
2023-03-16T11:10:36.094Z,12.60
2023-03-16T11:13:17.659Z,12.50
2023-03-16T11:15:51.006Z,11.30
2023-03-16T11:18:43.591Z,12.20
2023-03-16T11:21:36.430Z,12.50
2023-03-16T11:24:05.819Z,13.10
2023-03-16T11:26:39.495Z,14.00
2023-03-16T11:29:42.112Z,13.50
2023-03-16T11:32:22.256Z,15.00
2023-03-16T11:34:49.685Z,14.10
2023-03-16T11:37:59.296Z,13.00
2023-03-16T11:40:33.243Z,12.90
2023-03-16T11:43:19.356Z,15.10
2023-03-16T11:46:21.934Z,16.20
2023-03-16T11:49:26.306Z,17.00
2023-03-16T11:52:31.033Z,15.80
2023-03-16T11:55:31.720Z,17.00
2023-03-16T11:58:23.460Z,16.20
2023-03-16T12:01:09.361Z,16.10
2023-03-16T12:04:07.692Z,17.90
2023-03-16T12:06:51.327Z,17.20
2023-03-16T12:09:51.623Z,16.90
2023-03-16T12:12:39.362Z,19.80
2023-03-16T12:15:37.077Z,18.40
2023-03-16T12:18:11.124Z,19.00
2023-03-16T12:21:08.042Z,20.20
2023-03-16T12:23:43.905Z,23.50
2023-03-16T12:26:12.601Z,24.90
2023-03-16T12:28:43.974Z,25.40
2023-03-16T12:31:29.568Z,25.40
2023-03-16T12:34:16.346Z,22.20
2023-03-16T12:36:58.358Z,22.90
2023-03-16T12:39:52.838Z,24.60
2023-03-16T12:42:38.587Z,27.70
2023-03-16T12:45:46.910Z,27.70
2023-03-16T12:48:18.837Z,29.30
2023-03-16T12:50:52.228Z,27.90
2023-03-16T12:53:42.270Z,26.90
2023-03-16T12:56:13.278Z,23.70
2023-03-16T12:58:45.596Z,24.00
2023-03-16T13:01:15.396Z,24.70
2023-03-16T13:03:44.356Z,26.40
2023-03-16T13:06:20.672Z,24.30
2023-03-16T13:08:59.864Z,26.60
2023-03-16T13:11:28.668Z,28.30
2023-03-16T13:14:11.154Z,25.30
2023-03-16T13:16:39.538Z,23.30
2023-03-16T13:19:28.561Z,25.00
2023-03-16T13:22:19.396Z,23.80
2023-03-16T13:25:00.053Z,24.30
2023-03-16T13:27:30.173Z,24.30
2023-03-16T13:29:59.890Z,24.40
2023-03-16T13:32:32.388Z,21.10
2023-03-16T13:35:02.437Z,18.60
2023-03-16T13:37:30.629Z,17.90
2023-03-16T13:40:04.249Z,17.10
2023-03-16T13:42:37.055Z,17.40
2023-03-16T13:45:13.593Z,18.00
2023-03-16T13:47:43.830Z,20.30
2023-03-16T13:50:12.946Z,22.10
2023-03-16T13:52:43.133Z,21.90
2023-03-16T13:55:41.689Z,22.90
2023-03-16T13:58:26.641Z,26.50
2023-03-16T14:00:59.744Z,28.70
2023-03-16T14:03:42.191Z,27.60
2023-03-16T14:06:23.345Z,27.30
2023-03-16T14:08:58.551Z,27.60
2023-03-16T14:11:29.286Z,29.00
2023-03-16T14:13:58.884Z,25.70
2023-03-16T14:16:28.988Z,24.00
2023-03-16T14:19:06.037Z,25.80
2023-03-16T14:21:34.424Z,26.60
2023-03-16T14:24:20.178Z,26.00
2023-03-16T14:26:51.473Z,26.70
2023-03-16T14:29:28.570Z,28.40
2023-03-16T14:31:55.899Z,27.80
2023-03-16T14:34:28.916Z,28.20
2023-03-16T14:37:06.996Z,29.30
2023-03-16T14:39:34.248Z,29.80
2023-03-16T14:42:08.048Z,30.80
2023-03-16T14:44:37.199Z,30.40
2023-03-16T14:47:06.198Z,28.40
2023-03-16T14:49:34.923Z,29.10
2023-03-16T14:52:08.234Z,29.00
2023-03-16T14:54:35.560Z,29.40
2023-03-16T14:57:05.704Z,28.40
2023-03-16T14:59:33.635Z,27.60
2023-03-16T15:02:06.033Z,26.80
2023-03-16T15:04:36.593Z,27.20
2023-03-16T15:07:21.448Z,25.50
2023-03-16T15:09:53.870Z,23.90
2023-03-16T15:12:22.103Z,21.40
2023-03-16T15:15:07.811Z,19.70
2023-03-16T15:17:36.514Z,18.40
2023-03-16T15:20:05.351Z,17.50
2023-03-16T15:22:37.782Z,16.30
2023-03-16T15:25:26.228Z,15.80
2023-03-16T15:27:54.419Z,15.70
2023-03-16T15:30:25.841Z,15.70
2023-03-16T15:32:53.329Z,15.10
2023-03-16T15:35:20.744Z,14.70
2023-03-16T15:37:48.807Z,14.70
2023-03-16T15:40:22.658Z,14.40
2023-03-16T15:42:50.550Z,14.20
2023-03-16T15:45:20.795Z,14.00
2023-03-16T15:47:53.301Z,13.60
2023-03-16T15:50:24.745Z,13.30
2023-03-16T15:53:04.825Z,13.10
2023-03-16T15:55:42.843Z,13.00
2023-03-16T15:58:20.339Z,12.90
2023-03-16T16:00:51.823Z,12.60
2023-03-16T16:03:18.854Z,12.70
2023-03-16T16:05:45.811Z,12.20
2023-03-16T16:08:12.856Z,12.10
2023-03-16T16:10:41.824Z,11.80
2023-03-16T16:13:17.359Z,11.60
2023-03-16T16:15:45.342Z,11.70
2023-03-16T16:18:26.617Z,11.90
2023-03-16T16:20:54.005Z,11.70
2023-03-16T16:23:21.163Z,11.40
2023-03-16T16:25:49.615Z,11.40
2023-03-16T16:28:23.604Z,11.30
2023-03-16T16:30:51.142Z,11.30
2023-03-16T16:33:29.768Z,11.20
2023-03-16T16:35:59.296Z,11.30
2023-03-16T16:38:27.050Z,11.30
2023-03-16T16:40:58.290Z,10.90
2023-03-16T16:43:46.801Z,11.20
2023-03-16T16:46:18.004Z,11.00
2023-03-16T16:48:53.496Z,10.80
2023-03-16T16:51:27.885Z,10.60
2023-03-16T16:53:58.716Z,10.70
2023-03-16T16:56:28.937Z,10.60
2023-03-16T16:58:56.812Z,10.40
2023-03-16T17:01:27.928Z,10.10
2023-03-16T17:03:55.406Z,9.90
2023-03-16T17:06:22.671Z,10.00
2023-03-16T17:08:52.707Z,9.90
2023-03-16T17:11:30.904Z,9.60
2023-03-16T17:14:02.734Z,9.30
2023-03-16T17:16:33.102Z,9.20
2023-03-16T17:19:00.827Z,9.20
2023-03-16T17:21:31.114Z,9.00
2023-03-16T17:24:00.353Z,8.90
2023-03-16T17:26:35.896Z,8.60
2023-03-16T17:29:09.792Z,8.40
2023-03-16T17:31:41.772Z,8.50
2023-03-16T17:34:28.676Z,8.30
2023-03-16T17:36:56.790Z,8.40
2023-03-16T17:39:29.896Z,8.30
2023-03-16T17:42:07.467Z,8.30
2023-03-16T17:44:39.397Z,8.10
2023-03-16T17:47:16.118Z,8.00
2023-03-16T17:49:49.029Z,7.90
2023-03-16T17:52:20.001Z,7.80
2023-03-16T17:54:52.542Z,7.70
2023-03-16T17:57:33.031Z,7.80
2023-03-16T18:00:06.110Z,7.70
2023-03-16T18:02:58.118Z,7.70
2023-03-16T18:05:27.771Z,7.60
2023-03-16T18:07:58.499Z,7.50
2023-03-16T18:10:31.843Z,7.30
2023-03-16T18:13:11.056Z,7.30
2023-03-16T18:15:40.168Z,7.60
2023-03-16T18:18:08.750Z,7.50
2023-03-16T18:20:40.338Z,7.40
2023-03-16T18:23:22.055Z,7.40
2023-03-16T18:25:53.302Z,7.30
2023-03-16T18:28:23.825Z,6.80
2023-03-16T18:30:54.079Z,6.70
2023-03-16T18:33:28.101Z,6.90
2023-03-16T18:36:01.532Z,6.80
2023-03-16T18:38:35.907Z,6.70
2023-03-16T18:41:21.505Z,6.60
2023-03-16T18:43:51.505Z,6.60
2023-03-16T18:46:24.250Z,6.60
2023-03-16T18:48:59.701Z,6.40
2023-03-16T18:51:29.699Z,6.30
2023-03-16T18:53:59.343Z,6.20
2023-03-16T18:56:29.320Z,6.30
2023-03-16T18:58:58.481Z,6.10
2023-03-16T19:01:31.763Z,6.00
2023-03-16T19:04:08.677Z,6.00
2023-03-16T19:06:38.575Z,5.90
2023-03-16T19:09:19.237Z,5.70
2023-03-16T19:11:48.905Z,5.40
2023-03-16T19:14:22.758Z,5.40
2023-03-16T19:16:53.474Z,5.30
2023-03-16T19:19:24.007Z,5.30
2023-03-16T19:22:01.607Z,5.20
2023-03-16T19:24:45.165Z,5.20
2023-03-16T19:27:24.696Z,5.20
2023-03-16T19:29:55.995Z,5.00
2023-03-16T19:32:25.020Z,5.00
2023-03-16T19:34:53.928Z,5.00
2023-03-16T19:37:25.329Z,5.20
2023-03-16T19:39:56.228Z,4.80
2023-03-16T19:42:37.568Z,4.70
2023-03-16T19:45:07.498Z,4.70
2023-03-16T19:47:37.569Z,4.60
2023-03-16T19:50:19.293Z,4.50
2023-03-16T19:52:49.029Z,4.50
2023-03-16T19:55:23.942Z,4.60
2023-03-16T19:58:08.582Z,4.40
2023-03-16T20:00:38.119Z,4.50
2023-03-16T20:03:06.726Z,4.50
2023-03-16T20:05:34.632Z,4.50
2023-03-16T20:08:02.973Z,4.30
2023-03-16T20:10:33.360Z,4.10
2023-03-16T20:13:02.953Z,4.20
2023-03-16T20:15:35.452Z,4.30
2023-03-16T20:18:06.155Z,4.20
2023-03-16T20:20:37.465Z,4.10
2023-03-16T20:23:22.353Z,4.00
2023-03-16T20:25:52.883Z,4.20
2023-03-16T20:28:27.661Z,4.40
2023-03-16T20:30:57.161Z,4.50
2023-03-16T20:33:26.251Z,4.50
2023-03-16T20:35:56.838Z,4.50
2023-03-16T20:38:25.786Z,4.50
2023-03-16T20:40:56.541Z,4.40
2023-03-16T20:43:30.874Z,4.20
2023-03-16T20:46:01.932Z,4.10
2023-03-16T20:48:31.426Z,3.90
2023-03-16T20:51:00.780Z,3.90
2023-03-16T20:53:28.711Z,3.80
2023-03-16T20:55:58.287Z,3.90
2023-03-16T20:58:31.033Z,4.20
2023-03-16T21:01:03.286Z,4.10
2023-03-16T21:03:37.229Z,3.80
2023-03-16T21:06:14.637Z,3.90
2023-03-16T21:08:42.342Z,3.90
2023-03-16T21:11:20.684Z,4.00
2023-03-16T21:13:50.386Z,3.90
2023-03-16T21:16:18.488Z,3.90
2023-03-16T21:18:46.160Z,3.90
2023-03-16T21:21:17.960Z,3.90
2023-03-16T21:23:46.520Z,4.00
2023-03-16T21:26:21.011Z,4.30
2023-03-16T21:28:55.956Z,4.20
2023-03-16T21:31:24.797Z,4.20
2023-03-16T21:33:54.277Z,4.40
2023-03-16T21:36:27.283Z,4.30
2023-03-16T21:38:56.318Z,4.30
2023-03-16T21:41:24.095Z,4.40
2023-03-16T21:43:51.873Z,4.40
2023-03-16T21:46:21.612Z,4.30
2023-03-16T21:48:51.226Z,4.30
2023-03-16T21:51:38.439Z,4.30
2023-03-16T21:54:07.980Z,4.20
2023-03-16T21:56:36.234Z,4.30
2023-03-16T21:59:03.427Z,4.20
2023-03-16T22:01:32.444Z,4.30
2023-03-16T22:04:10.829Z,4.30
2023-03-16T22:06:38.005Z,4.20
2023-03-16T22:09:05.874Z,4.20
2023-03-16T22:11:33.060Z,4.30
2023-03-16T22:14:00.748Z,4.30
2023-03-16T22:16:34.864Z,4.00
2023-03-16T22:19:02.920Z,4.20
2023-03-16T22:21:41.489Z,4.10
2023-03-16T22:24:18.071Z,4.20
2023-03-16T22:26:46.370Z,4.30
2023-03-16T22:29:33.848Z,4.40
2023-03-16T22:32:12.443Z,4.30
2023-03-16T22:34:47.081Z,4.10
2023-03-16T22:37:20.345Z,4.10
2023-03-16T22:39:48.293Z,3.90
2023-03-16T22:42:24.445Z,4.00
2023-03-16T22:44:51.912Z,4.00
2023-03-16T22:47:27.615Z,4.00
2023-03-16T22:49:55.077Z,4.00
2023-03-16T22:52:27.188Z,4.20
2023-03-16T22:54:55.681Z,4.10
2023-03-16T22:57:23.195Z,4.10
2023-03-16T22:59:52.152Z,4.10
2023-03-16T23:02:22.277Z,4.30
2023-03-16T23:04:49.638Z,4.50
2023-03-16T23:07:17.216Z,4.50
2023-03-16T23:09:44.578Z,4.40
2023-03-16T23:12:16.001Z,4.40
2023-03-16T23:14:43.379Z,4.30
2023-03-16T23:17:25.815Z,4.50
2023-03-16T23:19:53.162Z,4.30
2023-03-16T23:22:20.109Z,4.30
2023-03-16T23:24:47.477Z,4.50
2023-03-16T23:27:18.209Z,4.50
2023-03-16T23:29:46.031Z,4.60
2023-03-16T23:32:14.821Z,4.50
2023-03-16T23:34:42.174Z,4.30
2023-03-16T23:37:09.413Z,4.30
2023-03-16T23:39:36.540Z,4.30
2023-03-16T23:42:04.616Z,4.50
2023-03-16T23:44:31.688Z,4.50
2023-03-16T23:47:00.320Z,4.40
2023-03-16T23:49:33.146Z,4.40
2023-03-16T23:52:01.910Z,4.50
2023-03-16T23:54:31.246Z,4.50
2023-03-16T23:56:58.705Z,4.40
2023-03-16T23:59:27.453Z,4.40
